Time;durP1;ratioP1;P1;durP2;ratioP2;P2;SDS_P1;SDS_P2;PMS_P1;PMS_P2;Temp;Humidity;BMP_temperature;BMP_pressure;BME280_temperature;BME280_humidity;BME280_pressure;Samples;Min_cycle;Max_cycle;Signal;HPM_P1;HPM_P2
2024/02/14 00:01:27;;;;;;;4.97;1.87;;;;;;;;;;4900817;29;20538;-87
2024/02/14 00:04:32;;;;;;;4.33;2.30;;;;;;;;;;4899912;29;20562;-87
2024/02/14 00:07:39;;;;;;;6.13;2.23;;;;;;;;;;4900561;29;20625;-87
2024/02/14 00:10:44;;;;;;;4.37;2.10;;;;;;;;;;4900663;29;20550;-87
2024/02/14 00:13:49;;;;;;;3.13;2.13;;;;;;;;;;4900312;29;20606;-86
2024/02/14 00:16:54;;;;;;;3.67;2.40;;;;;;;;;;4899686;29;20630;-87
2024/02/14 00:19:58;;;;;;;3.80;1.97;;;;;;;;;;4900338;29;20562;-87
2024/02/14 00:23:03;;;;;;;2.33;1.97;;;;;;;;;;4898463;29;20547;-86
2024/02/14 00:26:07;;;;;;;6.77;2.30;;;;;;;;;;4899803;29;20621;-87
2024/02/14 00:29:12;;;;;;;5.27;2.47;;;;;;;;;;4899950;29;20562;-88
2024/02/14 00:32:16;;;;;;;5.20;2.10;;;;;;;;;;4899484;29;20547;-87
2024/02/14 00:35:25;;;;;;;3.60;1.90;;;;;;;;;;4900516;29;20630;-86
2024/02/14 00:38:30;;;;;;;3.33;2.17;;;;;;;;;;4899763;29;20543;-87
2024/02/14 00:41:35;;;;;;;5.00;2.30;;;;;;;;;;4900933;29;20550;-88
2024/02/14 00:44:39;;;;;;;5.17;2.40;;;;;;;;;;4899598;29;20547;-86
2024/02/14 00:47:43;;;;;;;3.60;2.37;;;;;;;;;;4910719;29;20546;-87
2024/02/14 00:50:48;;;;;;;5.63;2.30;;;;;;;;;;4909900;29;20558;-86
2024/02/14 00:53:52;;;;;;;4.40;2.60;;;;;;;;;;4898653;29;20599;-86
2024/02/14 00:56:57;;;;;;;5.20;2.30;;;;;;;;;;4898733;29;20618;-86
2024/02/14 01:00:01;;;;;;;6.40;2.37;;;;;;;;;;4897289;29;20550;-87
2024/02/14 01:03:12;;;;;;;6.90;2.53;;;;;;;;;;4897509;29;20547;-87
2024/02/14 01:06:18;;;;;;;3.77;1.90;;;;;;;;;;4897975;29;20653;-86
2024/02/14 01:09:22;;;;;;;2.93;2.40;;;;;;;;;;4899292;29;21094;-88
2024/02/14 01:12:26;;;;;;;5.20;2.57;;;;;;;;;;4887771;29;21080;-87
2024/02/14 01:15:31;;;;;;;4.57;2.43;;;;;;;;;;4898409;29;20621;-87
2024/02/14 01:18:35;;;;;;;3.83;2.67;;;;;;;;;;4886317;29;20551;-86
2024/02/14 01:21:40;;;;;;;6.90;2.93;;;;;;;;;;4909000;29;20559;-87
2024/02/14 01:24:44;;;;;;;5.20;2.93;;;;;;;;;;4897629;29;20539;-88
2024/02/14 01:27:49;;;;;;;9.37;2.77;;;;;;;;;;4897626;29;20547;-86
2024/02/14 01:30:53;;;;;;;9.63;2.80;;;;;;;;;;4898269;29;20546;-87
2024/02/14 01:33:59;;;;;;;5.00;2.77;;;;;;;;;;4897236;29;20618;-87
2024/02/14 01:37:03;;;;;;;4.57;2.90;;;;;;;;;;4898903;29;20625;-87
2024/02/14 01:40:08;;;;;;;5.43;3.23;;;;;;;;;;4898567;29;21082;-87
2024/02/14 01:43:26;;;;;;;8.27;3.47;;;;;;;;;;4890446;29;20559;-88
2024/02/14 01:46:30;;;;;;;7.20;3.30;;;;;;;;;;4898092;29;20625;-87
2024/02/14 01:49:36;;;;;;;4.17;2.60;;;;;;;;;;4898860;29;20571;-87
2024/02/14 01:52:41;;;;;;;3.63;2.40;;;;;;;;;;4898661;29;20547;-87
2024/02/14 01:55:46;;;;;;;3.90;2.13;;;;;;;;;;4899310;29;20629;-87
2024/02/14 01:58:53;;;;;;;7.60;2.97;;;;;;;;;;4909720;29;20550;-87
2024/02/14 02:01:57;;;;;;;4.80;2.60;;;;;;;;;;4899171;29;20546;-86
2024/02/14 02:05:02;;;;;;;5.63;2.60;;;;;;;;;;4898169;29;20559;-86
2024/02/14 02:08:09;;;;;;;6.00;2.47;;;;;;;;;;4898453;29;20546;-86
2024/02/14 02:11:13;;;;;;;4.80;2.40;;;;;;;;;;4898495;29;20547;-87
2024/02/14 02:14:40;;;;;;;4.73;2.60;;;;;;;;;;4892828;29;20610;-86
2024/02/14 02:18:07;;;;;;;5.33;2.90;;;;;;;;;;4900780;29;20547;-86
2024/02/14 02:21:31;;;;;;;6.10;3.00;;;;;;;;;;4900649;29;20538;-86
2024/02/14 02:24:36;;;;;;;9.63;3.00;;;;;;;;;;4897701;29;20546;-87
2024/02/14 02:27:40;;;;;;;7.80;3.20;;;;;;;;;;4897879;29;20542;-86
2024/02/14 02:31:04;;;;;;;4.33;2.83;;;;;;;;;;4908209;29;20539;-86
2024/02/14 02:34:10;;;;;;;6.60;3.03;;;;;;;;;;4887209;29;20614;-86
2024/02/14 02:37:16;;;;;;;6.03;3.13;;;;;;;;;;4897314;29;20625;-86
2024/02/14 02:40:41;;;;;;;5.57;2.90;;;;;;;;;;4899485;29;20539;-86
2024/02/14 02:44:06;;;;;;;9.37;3.20;;;;;;;;;;4907838;29;20543;-86
2024/02/14 02:47:42;;;;;;;6.33;2.97;;;;;;;;;;4908682;29;21190;-87
2024/02/14 02:51:06;;;;;;;6.80;3.37;;;;;;;;;;4908502;29;20543;-86
2024/02/14 02:54:47;;;;;;;6.07;2.70;;;;;;;;;;4908908;29;20602;-86
2024/02/14 02:58:03;;;;;;;4.23;3.07;;;;;;;;;;4902249;29;20542;-86
2024/02/14 03:01:09;;;;;;;5.57;3.13;;;;;;;;;;4900908;29;20194;-88
2024/02/14 03:04:33;;;;;;;8.47;3.07;;;;;;;;;;4894917;29;20554;-86
2024/02/14 03:07:58;;;;;;;4.23;2.87;;;;;;;;;;4926839;23;20238;-88
2024/02/14 03:11:22;;;;;;;4.70;3.27;;;;;;;;;;4874787;29;20544;-88
2024/02/14 03:14:51;;;;;;;4.67;2.77;;;;;;;;;;4874786;29;20218;-88
2024/02/14 03:18:14;;;;;;;5.30;2.43;;;;;;;;;;4884034;29;20218;-89
2024/02/14 03:21:19;;;;;;;5.80;2.57;;;;;;;;;;4871880;29;20559;-87
2024/02/14 03:24:26;;;;;;;6.43;2.97;;;;;;;;;;4871400;29;20538;-87
2024/02/14 03:27:39;;;;;;;5.40;2.80;;;;;;;;;;4882753;29;20230;-88
2024/02/14 03:30:44;;;;;;;4.43;2.70;;;;;;;;;;4871979;29;20186;-88
2024/02/14 03:33:50;;;;;;;5.07;2.87;;;;;;;;;;4871734;29;20960;-88
2024/02/14 03:36:53;;;;;;;5.47;2.57;;;;;;;;;;4882117;29;20222;-88
2024/02/14 03:39:59;;;;;;;7.80;2.90;;;;;;;;;;4871471;29;20191;-88
2024/02/14 03:43:03;;;;;;;4.50;2.77;;;;;;;;;;4871724;29;20552;-88
2024/02/14 03:46:08;;;;;;;4.50;2.57;;;;;;;;;;4878878;29;20590;-88
2024/02/14 03:49:14;;;;;;;4.83;2.80;;;;;;;;;;4890594;29;21117;-88
2024/02/14 03:52:18;;;;;;;7.47;3.30;;;;;;;;;;4879632;29;20546;-88
2024/02/14 03:55:23;;;;;;;5.67;2.60;;;;;;;;;;4900713;29;20602;-88
2024/02/14 03:58:27;;;;;;;4.20;2.40;;;;;;;;;;4900695;29;20663;-88
2024/02/14 04:01:32;;;;;;;5.87;2.10;;;;;;;;;;4900598;29;20547;-88
2024/02/14 04:04:37;;;;;;;3.50;2.07;;;;;;;;;;4890167;29;20543;-88
2024/02/14 04:07:48;;;;;;;3.63;1.93;;;;;;;;;;4889612;29;20649;-88
2024/02/14 04:10:56;;;;;;;3.53;2.07;;;;;;;;;;4900151;29;20546;-88
2024/02/14 04:14:03;;;;;;;2.30;1.70;;;;;;;;;;4900582;29;20618;-88
2024/02/14 04:17:07;;;;;;;5.13;2.40;;;;;;;;;;4889412;29;20626;-88
2024/02/14 04:20:12;;;;;;;4.67;2.10;;;;;;;;;;4889470;29;20551;-88
2024/02/14 04:23:17;;;;;;;4.03;2.30;;;;;;;;;;4900592;29;20550;-88
2024/02/14 04:26:21;;;;;;;4.80;2.37;;;;;;;;;;4900694;29;20552;-88
2024/02/14 04:29:28;;;;;;;6.27;2.70;;;;;;;;;;4889423;29;20547;-88
2024/02/14 04:32:40;;;;;;;3.87;2.40;;;;;;;;;;4910507;29;21103;-88
2024/02/14 04:35:44;;;;;;;3.67;2.50;;;;;;;;;;4900129;29;20963;-88
2024/02/14 04:38:52;;;;;;;7.20;2.77;;;;;;;;;;4911154;29;20998;-88
2024/02/14 04:42:01;;;;;;;4.40;2.63;;;;;;;;;;4879185;29;20555;-88
2024/02/14 04:45:05;;;;;;;7.73;3.20;;;;;;;;;;4879093;29;20186;-88
2024/02/14 04:48:13;;;;;;;5.67;3.43;;;;;;;;;;4889518;29;20221;-89
2024/02/14 04:51:20;;;;;;;6.57;3.07;;;;;;;;;;4899803;29;20186;-88
2024/02/14 04:54:26;;;;;;;5.83;3.33;;;;;;;;;;4889863;29;20602;-88
2024/02/14 04:57:36;;;;;;;4.13;2.90;;;;;;;;;;4879666;29;20225;-88
2024/02/14 05:00:41;;;;;;;6.30;3.07;;;;;;;;;;4900872;29;20554;-88
2024/02/14 05:03:46;;;;;;;5.47;3.40;;;;;;;;;;4889373;29;20186;-88
2024/02/14 05:06:50;;;;;;;5.07;3.10;;;;;;;;;;4911584;29;20642;-88
2024/02/14 05:09:58;;;;;;;7.70;3.23;;;;;;;;;;4911261;29;20191;-89
2024/02/14 05:13:02;;;;;;;3.63;2.80;;;;;;;;;;4899670;29;20187;-88
2024/02/14 05:16:10;;;;;;;4.87;3.00;;;;;;;;;;4889725;29;20178;-88
2024/02/14 05:19:14;;;;;;;4.97;2.80;;;;;;;;;;4900647;29;20186;-88
2024/02/14 05:22:18;;;;;;;4.27;2.83;;;;;;;;;;4879620;29;20190;-88
2024/02/14 05:25:24;;;;;;;7.33;3.27;;;;;;;;;;4889016;29;20186;-88
2024/02/14 05:28:36;;;;;;;8.43;4.10;;;;;;;;;;4889998;29;20225;-87
2024/02/14 05:31:45;;;;;;;11.17;5.90;;;;;;;;;;4889778;29;20566;-89
2024/02/14 05:34:50;;;;;;;15.90;5.73;;;;;;;;;;4900353;29;20213;-88
2024/02/14 05:37:55;;;;;;;8.80;4.20;;;;;;;;;;4878127;29;20575;-88
2024/02/14 05:41:00;;;;;;;5.10;2.93;;;;;;;;;;4899686;29;20190;-88
2024/02/14 05:44:06;;;;;;;10.90;4.20;;;;;;;;;;4910737;29;20178;-88
2024/02/14 05:47:11;;;;;;;5.67;2.80;;;;;;;;;;4889233;29;20705;-88
2024/02/14 05:50:16;;;;;;;4.10;2.30;;;;;;;;;;4899517;29;20189;-88
2024/02/14 05:53:21;;;;;;;3.93;2.80;;;;;;;;;;4889289;29;20186;-88
2024/02/14 05:56:26;;;;;;;5.20;2.47;;;;;;;;;;4909736;29;20182;-88
2024/02/14 05:59:30;;;;;;;5.97;2.37;;;;;;;;;;4877973;29;20186;-88
2024/02/14 06:02:34;;;;;;;3.27;2.40;;;;;;;;;;4889296;29;20181;-89
2024/02/14 06:05:38;;;;;;;4.03;2.63;;;;;;;;;;4888967;29;20186;-88
2024/02/14 06:08:50;;;;;;;3.57;2.60;;;;;;;;;;4910500;29;20229;-88
2024/02/14 06:11:54;;;;;;;4.30;2.90;;;;;;;;;;4910580;29;20186;-88
2024/02/14 06:15:00;;;;;;;3.63;2.40;;;;;;;;;;4888399;29;20217;-88
2024/02/14 06:18:04;;;;;;;4.60;2.30;;;;;;;;;;4888844;29;20221;-88
2024/02/14 06:21:09;;;;;;;3.20;2.23;;;;;;;;;;4899699;29;20190;-88
2024/02/14 06:24:13;;;;;;;4.90;2.63;;;;;;;;;;4888766;29;20185;-88
2024/02/14 06:27:18;;;;;;;4.13;2.30;;;;;;;;;;4899311;29;20217;-88
2024/02/14 06:30:21;;;;;;;2.90;2.20;;;;;;;;;;4889558;29;20197;-88
2024/02/14 06:33:28;;;;;;;3.30;2.20;;;;;;;;;;4902350;29;20186;-88
2024/02/14 06:36:32;;;;;;;6.20;2.37;;;;;;;;;;4913797;29;20178;-88
2024/02/14 06:39:36;;;;;;;3.57;2.23;;;;;;;;;;4891914;29;20185;-88
2024/02/14 06:42:40;;;;;;;3.20;2.20;;;;;;;;;;4902223;29;20186;-88
2024/02/14 06:45:53;;;;;;;4.27;2.00;;;;;;;;;;4903007;29;20186;-88
2024/02/14 06:49:01;;;;;;;3.47;2.10;;;;;;;;;;4892090;29;20190;-88
2024/02/14 06:52:10;;;;;;;6.03;1.90;;;;;;;;;;4902241;29;20181;-88
2024/02/14 06:55:14;;;;;;;3.00;1.87;;;;;;;;;;4891037;29;20217;-88
2024/02/14 06:58:18;;;;;;;4.07;1.90;;;;;;;;;;4903064;29;20229;-88
2024/02/14 07:01:22;;;;;;;3.97;1.77;;;;;;;;;;4902315;29;20193;-88
2024/02/14 07:04:27;;;;;;;2.87;1.93;;;;;;;;;;4891167;29;20182;-88
2024/02/14 07:07:32;;;;;;;3.43;2.30;;;;;;;;;;4890577;29;20225;-88
2024/02/14 07:10:42;;;;;;;7.20;4.90;;;;;;;;;;4912455;29;20181;-88
2024/02/14 07:13:47;;;;;;;7.93;3.80;;;;;;;;;;4890842;29;20569;-89
2024/02/14 07:16:52;;;;;;;7.27;5.00;;;;;;;;;;4890263;29;20217;-88
2024/02/14 07:19:57;;;;;;;15.00;12.03;;;;;;;;;;4901353;29;20185;-89
2024/02/14 07:23:05;;;;;;;8.60;5.03;;;;;;;;;;4901116;29;20185;-88
2024/02/14 07:26:11;;;;;;;4.53;3.23;;;;;;;;;;4901605;29;20174;-88
2024/02/14 07:29:16;;;;;;;3.67;2.47;;;;;;;;;;4890943;29;20185;-88
2024/02/14 07:32:21;;;;;;;5.83;2.30;;;;;;;;;;4924101;28;20198;-87
2024/02/14 07:35:25;;;;;;;3.70;1.80;;;;;;;;;;4900742;29;20213;-87
2024/02/14 07:38:30;;;;;;;3.50;1.73;;;;;;;;;;4900445;29;20225;-87
2024/02/14 07:41:34;;;;;;;5.40;1.73;;;;;;;;;;4888329;29;20198;-87
2024/02/14 07:44:41;;;;;;;3.97;1.60;;;;;;;;;;4900613;29;20181;-88
2024/02/14 07:47:46;;;;;;;2.00;1.50;;;;;;;;;;4935512;28;20221;-88
2024/02/14 07:50:50;;;;;;;4.07;1.83;;;;;;;;;;4900669;29;20181;-87
2024/02/14 07:53:54;;;;;;;2.83;1.30;;;;;;;;;;4899697;29;20189;-87
2024/02/14 07:56:59;;;;;;;3.40;1.40;;;;;;;;;;4900128;29;20217;-88
2024/02/14 08:00:08;;;;;;;3.17;1.60;;;;;;;;;;4900188;29;20182;-89
2024/02/14 08:03:14;;;;;;;10.27;1.80;;;;;;;;;;4900676;29;20186;-88
2024/02/14 08:06:18;;;;;;;3.90;1.90;;;;;;;;;;4890419;29;20182;-89
2024/02/14 08:09:30;;;;;;;5.17;1.90;;;;;;;;;;4889962;29;20213;-90
2024/02/14 08:12:34;;;;;;;2.80;1.67;;;;;;;;;;4890304;29;20178;-89
2024/02/14 08:15:38;;;;;;;3.73;1.60;;;;;;;;;;4885334;29;20214;-87
2024/02/14 08:18:44;;;;;;;5.10;1.70;;;;;;;;;;4880618;29;20222;-88
2024/02/14 08:21:48;;;;;;;4.20;2.10;;;;;;;;;;4859617;29;20190;-88
2024/02/14 08:24:52;;;;;;;1.70;1.60;;;;;;;;;;4881903;29;20195;-89
2024/02/14 08:27:57;;;;;;;2.73;1.60;;;;;;;;;;4871010;29;20218;-89
2024/02/14 08:31:03;;;;;;;2.67;2.37;;;;;;;;;;4872372;29;20182;-89
2024/02/14 08:34:09;;;;;;;4.77;2.20;;;;;;;;;;4881539;29;20183;-88
2024/02/14 08:37:14;;;;;;;4.30;1.97;;;;;;;;;;4881074;29;20226;-88
2024/02/14 08:40:18;;;;;;;29.93;14.37;;;;;;;;;;4881544;29;20174;-89
2024/02/14 08:43:25;;;;;;;167.13;71.47;;;;;;;;;;4870967;29;20182;-89
2024/02/14 08:46:29;;;;;;;14.67;11.20;;;;;;;;;;4882343;29;20198;-89
2024/02/14 08:49:34;;;;;;;5.80;4.10;;;;;;;;;;4892308;29;20194;-89
2024/02/14 08:52:38;;;;;;;3.60;2.90;;;;;;;;;;4881176;29;20186;-89
2024/02/14 08:55:42;;;;;;;4.60;2.40;;;;;;;;;;4879752;29;20218;-86
2024/02/14 08:58:47;;;;;;;5.70;3.20;;;;;;;;;;4869260;29;20222;-87
2024/02/14 09:01:51;;;;;;;3.83;2.30;;;;;;;;;;4880634;29;20182;-88
2024/02/14 09:04:55;;;;;;;3.73;2.13;;;;;;;;;;4880216;29;20194;-87
2024/02/14 09:08:00;;;;;;;4.40;2.00;;;;;;;;;;4880229;29;20710;-84
2024/02/14 09:11:04;;;;;;;4.03;1.80;;;;;;;;;;4880032;29;20186;-83
2024/02/14 09:14:10;;;;;;;4.90;1.87;;;;;;;;;;4870092;29;20191;-84
2024/02/14 09:17:15;;;;;;;2.13;1.40;;;;;;;;;;4891622;29;20221;-84
2024/02/14 09:20:20;;;;;;;3.67;1.40;;;;;;;;;;4870034;29;20190;-85
2024/02/14 09:23:27;;;;;;;2.57;1.80;;;;;;;;;;4880026;29;20524;-85
2024/02/14 09:26:31;;;;;;;2.30;1.83;;;;;;;;;;4880008;29;20631;-85
2024/02/14 09:29:37;;;;;;;3.83;2.03;;;;;;;;;;4880164;29;20186;-83
2024/02/14 09:32:42;;;;;;;4.47;1.70;;;;;;;;;;4880587;29;20183;-84
2024/02/14 09:35:47;;;;;;;2.80;1.80;;;;;;;;;;4880922;29;20210;-84
2024/02/14 09:38:51;;;;;;;3.47;1.53;;;;;;;;;;4870039;29;20183;-84
2024/02/14 09:42:02;;;;;;;1.80;1.40;;;;;;;;;;4880086;29;20190;-85
2024/02/14 09:45:07;;;;;;;3.77;1.97;;;;;;;;;;4868995;29;20546;-85
2024/02/14 09:48:12;;;;;;;2.27;1.50;;;;;;;;;;4878069;29;20703;-83
2024/02/14 09:51:17;;;;;;;7.07;1.80;;;;;;;;;;4867162;29;20182;-84
2024/02/14 09:54:21;;;;;;;3.30;1.77;;;;;;;;;;4878689;29;20190;-84
2024/02/14 09:57:29;;;;;;;5.07;2.17;;;;;;;;;;4878165;29;20218;-84
2024/02/14 10:00:35;;;;;;;5.00;2.30;;;;;;;;;;4857637;29;20644;-84
2024/02/14 10:03:47;;;;;;;3.20;1.50;;;;;;;;;;4878993;29;20551;-85
2024/02/14 10:06:57;;;;;;;4.60;1.87;;;;;;;;;;4877050;29;20222;-85
2024/02/14 10:10:11;;;;;;;2.40;1.57;;;;;;;;;;4877407;29;20529;-85
2024/02/14 10:13:18;;;;;;;4.53;1.90;;;;;;;;;;4878746;29;20191;-83
2024/02/14 10:16:22;;;;;;;2.27;1.40;;;;;;;;;;4878283;29;20214;-83
2024/02/14 10:19:26;;;;;;;3.77;1.80;;;;;;;;;;4879113;29;20182;-83
2024/02/14 10:22:39;;;;;;;5.13;1.60;;;;;;;;;;4867921;29;20538;-83
2024/02/14 10:25:44;;;;;;;3.93;2.40;;;;;;;;;;4868343;29;20190;-83
2024/02/14 10:28:50;;;;;;;2.63;1.70;;;;;;;;;;4879824;29;20226;-85
2024/02/14 10:31:58;;;;;;;4.30;2.33;;;;;;;;;;4868840;29;20186;-84
2024/02/14 10:35:08;;;;;;;5.77;2.50;;;;;;;;;;4857653;29;20183;-86
2024/02/14 10:38:16;;;;;;;9.43;6.07;;;;;;;;;;4888873;29;20218;-86
2024/02/14 10:41:31;;;;;;;8.57;4.40;;;;;;;;;;4870281;29;20187;-88
2024/02/14 10:44:45;;;;;;;3.97;2.60;;;;;;;;;;4880271;29;20187;-84
2024/02/14 10:48:25;;;;;;;3.40;2.20;;;;;;;;;;4873277;29;20226;-85
2024/02/14 10:51:38;;;;;;;6.70;5.33;;;;;;;;;;4880518;29;20182;-85
2024/02/14 10:54:43;;;;;;;4.40;3.30;;;;;;;;;;4879423;29;20182;-82
2024/02/14 10:57:49;;;;;;;3.17;2.33;;;;;;;;;;4878853;29;20218;-82
2024/02/14 11:05:15;;;;;;;4.47;2.80;;;;;;;;;;4879980;29;20186;-85
2024/02/14 11:08:24;;;;;;;2.07;1.83;;;;;;;;;;4895932;29;20250;-87
2024/02/14 11:11:49;;;;;;;3.20;1.73;;;;;;;;;;4939997;28;20298;-84
2024/02/14 11:14:58;;;;;;;3.80;1.50;;;;;;;;;;4883752;29;20190;-85
2024/02/14 11:18:07;;;;;;;1.77;0.90;;;;;;;;;;4886936;29;20214;-83
2024/02/14 11:21:35;;;;;;;2.13;1.20;;;;;;;;;;4887814;29;20186;-85
2024/02/14 11:24:48;;;;;;;1.30;0.90;;;;;;;;;;4886963;29;20206;-84
2024/02/14 11:27:53;;;;;;;2.00;1.20;;;;;;;;;;4887484;29;20214;-82
2024/02/14 11:31:03;;;;;;;2.10;1.40;;;;;;;;;;4887141;29;20190;-85
2024/02/14 11:34:13;;;;;;;1.30;0.93;;;;;;;;;;4886791;29;20186;-85
2024/02/14 11:37:31;;;;;;;2.23;1.80;;;;;;;;;;4890822;29;20226;-84
2024/02/14 11:40:39;;;;;;;4.07;1.30;;;;;;;;;;4901430;29;20182;-84
2024/02/14 11:43:51;;;;;;;1.70;0.93;;;;;;;;;;4877152;29;20183;-83
2024/02/14 11:46:56;;;;;;;2.30;1.50;;;;;;;;;;4867313;29;20218;-83
2024/02/14 11:50:02;;;;;;;4.07;1.50;;;;;;;;;;4888867;29;20186;-83
2024/02/14 11:53:09;;;;;;;6.50;3.40;;;;;;;;;;4890018;29;20253;-83
2024/02/14 11:56:25;;;;;;;7.30;4.90;;;;;;;;;;4880350;29;20210;-85
2024/02/14 11:59:46;;;;;;;6.90;4.10;;;;;;;;;;4895197;29;20198;-88
2024/02/14 12:02:52;;;;;;;13.13;7.50;;;;;;;;;;4889691;29;20183;-82
2024/02/14 12:05:57;;;;;;;13.97;7.57;;;;;;;;;;4888933;29;20202;-83
2024/02/14 12:09:05;;;;;;;7.90;4.40;;;;;;;;;;4889227;29;20214;-81
2024/02/14 12:12:11;;;;;;;12.20;6.00;;;;;;;;;;4888086;29;20179;-82
2024/02/14 12:15:15;;;;;;;6.67;3.50;;;;;;;;;;4887690;29;20195;-82
2024/02/14 12:18:20;;;;;;;14.07;6.87;;;;;;;;;;4887884;29;20564;-79
2024/02/14 12:21:26;;;;;;;5.03;2.53;;;;;;;;;;4896445;29;20186;-80
2024/02/14 12:24:30;;;;;;;15.37;4.30;;;;;;;;;;4888522;29;20191;-79
2024/02/14 12:27:35;;;;;;;14.53;6.47;;;;;;;;;;4887808;29;20575;-80
2024/02/14 12:30:49;;;;;;;2.27;1.30;;;;;;;;;;4888507;29;20186;-80
2024/02/14 12:33:55;;;;;;;1.97;0.90;;;;;;;;;;4887692;29;20179;-80
2024/02/14 12:36:59;;;;;;;1.83;0.80;;;;;;;;;;4885656;29;20238;-79
2024/02/14 12:40:05;;;;;;;2.63;1.33;;;;;;;;;;4884222;29;20183;-79
2024/02/14 12:43:14;;;;;;;1.67;0.90;;;;;;;;;;4884198;29;20190;-83
2024/02/14 12:46:18;;;;;;;2.00;0.73;;;;;;;;;;4884691;29;20187;-84
2024/02/14 12:49:26;;;;;;;2.60;1.20;;;;;;;;;;4885133;29;20218;-87
2024/02/14 12:52:30;;;;;;;2.00;0.70;;;;;;;;;;4884538;29;20182;-88
2024/02/14 12:55:34;;;;;;;5.07;1.00;;;;;;;;;;4874099;29;20186;-87
2024/02/14 12:58:38;;;;;;;3.13;0.97;;;;;;;;;;4874470;29;20210;-87
2024/02/14 13:01:43;;;;;;;2.50;1.23;;;;;;;;;;4883991;29;20190;-88
2024/02/14 13:04:48;;;;;;;2.80;1.20;;;;;;;;;;4884022;29;20190;-89
2024/02/14 13:07:52;;;;;;;1.77;1.00;;;;;;;;;;4873106;29;20218;-89
2024/02/14 13:10:57;;;;;;;1.93;0.97;;;;;;;;;;4872522;29;20186;-87
2024/02/14 13:14:01;;;;;;;1.53;1.00;;;;;;;;;;4861952;29;20190;-88
2024/02/14 13:17:05;;;;;;;2.47;1.03;;;;;;;;;;4883343;29;20234;-88
2024/02/14 13:20:09;;;;;;;2.83;0.90;;;;;;;;;;4883189;29;20525;-88
2024/02/14 13:23:14;;;;;;;1.60;0.80;;;;;;;;;;4872471;29;20194;-88
2024/02/14 13:26:18;;;;;;;2.30;0.90;;;;;;;;;;4882775;29;20624;-88
2024/02/14 13:29:24;;;;;;;2.30;1.10;;;;;;;;;;4871966;29;20186;-88
2024/02/14 13:32:28;;;;;;;2.60;1.00;;;;;;;;;;4871570;29;20529;-87
2024/02/14 13:35:37;;;;;;;1.20;0.90;;;;;;;;;;4871820;29;20186;-86
2024/02/14 13:38:41;;;;;;;3.03;1.03;;;;;;;;;;4883385;29;20210;-87
2024/02/14 13:41:47;;;;;;;1.50;1.10;;;;;;;;;;4883678;29;20186;-86
2024/02/14 13:44:54;;;;;;;4.10;2.40;;;;;;;;;;4863455;29;20186;-87
2024/02/14 13:48:04;;;;;;;12.27;5.77;;;;;;;;;;4861205;29;20222;-87
2024/02/14 13:51:10;;;;;;;6.40;2.07;;;;;;;;;;4883182;29;20182;-87
2024/02/14 13:54:14;;;;;;;4.23;1.10;;;;;;;;;;4883951;29;20186;-87
2024/02/14 13:57:19;;;;;;;1.93;1.00;;;;;;;;;;4883064;29;20580;-87
2024/02/14 14:00:23;;;;;;;1.43;0.70;;;;;;;;;;4882885;29;20632;-87
2024/02/14 14:03:29;;;;;;;1.67;0.90;;;;;;;;;;4860604;29;20190;-87
2024/02/14 14:06:34;;;;;;;2.30;0.80;;;;;;;;;;4882084;29;20182;-87
2024/02/14 14:09:39;;;;;;;1.53;0.90;;;;;;;;;;4881722;29;20209;-87
2024/02/14 14:12:43;;;;;;;1.37;0.90;;;;;;;;;;4872330;29;20182;-87
2024/02/14 14:15:47;;;;;;;2.23;0.87;;;;;;;;;;4861610;29;20191;-87
2024/02/14 14:18:51;;;;;;;2.30;1.20;;;;;;;;;;4883161;29;20552;-87
2024/02/14 14:21:56;;;;;;;4.07;0.80;;;;;;;;;;4882114;29;20190;-87
2024/02/14 14:25:02;;;;;;;1.23;0.80;;;;;;;;;;4881400;29;20627;-87
2024/02/14 14:28:09;;;;;;;3.03;0.93;;;;;;;;;;4882060;29;20564;-87
2024/02/14 14:31:13;;;;;;;3.93;0.90;;;;;;;;;;4871309;29;20190;-85
2024/02/14 14:34:19;;;;;;;2.13;0.70;;;;;;;;;;4870089;29;20640;-84
2024/02/14 14:37:24;;;;;;;1.87;0.90;;;;;;;;;;4881271;29;20238;-83
2024/02/14 14:40:28;;;;;;;2.60;1.00;;;;;;;;;;4891760;29;20190;-84
2024/02/14 14:43:32;;;;;;;1.20;0.70;;;;;;;;;;4881634;29;20187;-84
2024/02/14 14:46:41;;;;;;;1.67;0.80;;;;;;;;;;4859214;29;20643;-84
2024/02/14 14:49:45;;;;;;;2.33;0.90;;;;;;;;;;4880531;29;20190;-84
2024/02/14 14:52:50;;;;;;;1.50;0.93;;;;;;;;;;4884416;29;20520;-83
2024/02/14 14:55:56;;;;;;;2.20;0.97;;;;;;;;;;4873225;29;20197;-80
2024/02/14 14:59:03;;;;;;;1.40;0.80;;;;;;;;;;4885391;29;20179;-83
2024/02/14 15:02:07;;;;;;;2.43;1.13;;;;;;;;;;4884312;29;20186;-83
2024/02/14 15:05:12;;;;;;;2.13;1.00;;;;;;;;;;4883603;29;20190;-82
2024/02/14 15:08:17;;;;;;;1.80;0.73;;;;;;;;;;4885646;29;20230;-85
2024/02/14 15:11:23;;;;;;;1.47;0.90;;;;;;;;;;4883069;29;20190;-88
2024/02/14 15:14:27;;;;;;;1.73;1.00;;;;;;;;;;4883542;29;20529;-86
2024/02/14 15:17:31;;;;;;;2.60;1.00;;;;;;;;;;4884947;29;20234;-86
2024/02/14 15:20:38;;;;;;;1.47;0.90;;;;;;;;;;4883732;29;20186;-85
2024/02/14 15:23:44;;;;;;;1.40;0.70;;;;;;;;;;4872167;29;20190;-86
2024/02/14 15:26:53;;;;;;;3.67;0.90;;;;;;;;;;4883140;29;20226;-85
2024/02/14 15:33:27;;;;;;;3.00;1.43;;;;;;;;;;4884079;29;20191;-86
2024/02/14 15:36:31;;;;;;;2.90;1.77;;;;;;;;;;4883612;29;20186;-85
2024/02/14 15:39:35;;;;;;;1.87;1.30;;;;;;;;;;4882609;29;20182;-86
2024/02/14 15:42:41;;;;;;;2.00;1.33;;;;;;;;;;4872210;29;20190;-86
2024/02/14 15:45:45;;;;;;;5.77;1.93;;;;;;;;;;4883762;29;20187;-86
2024/02/14 15:48:49;;;;;;;2.40;1.63;;;;;;;;;;4884116;29;20222;-86
2024/02/14 15:51:55;;;;;;;2.37;1.90;;;;;;;;;;4893755;29;20190;-86
2024/02/14 15:55:00;;;;;;;3.93;1.60;;;;;;;;;;4883086;29;20186;-86
2024/02/14 15:58:05;;;;;;;3.20;1.73;;;;;;;;;;4882120;29;20230;-86
2024/02/14 16:01:09;;;;;;;3.33;2.00;;;;;;;;;;4882199;29;20186;-86
2024/02/14 16:04:13;;;;;;;4.93;1.47;;;;;;;;;;4870832;29;20191;-86
2024/02/14 16:07:18;;;;;;;3.83;1.70;;;;;;;;;;4871601;29;20567;-86
2024/02/14 16:10:23;;;;;;;2.13;1.40;;;;;;;;;;4883651;29;20206;-87
2024/02/14 16:13:28;;;;;;;1.97;1.10;;;;;;;;;;4882987;29;20190;-88
2024/02/14 16:16:32;;;;;;;2.40;1.33;;;;;;;;;;4882994;29;20186;-87
2024/02/14 16:19:37;;;;;;;3.80;1.33;;;;;;;;;;4872863;29;20187;-87
2024/02/14 16:22:41;;;;;;;2.43;1.30;;;;;;;;;;4873007;29;20190;-87
2024/02/14 16:25:47;;;;;;;1.80;1.13;;;;;;;;;;4883017;29;20627;-88
2024/02/14 16:28:51;;;;;;;2.20;1.37;;;;;;;;;;4871285;29;20618;-84
2024/02/14 16:31:55;;;;;;;1.37;1.20;;;;;;;;;;4881852;29;20194;-86
2024/02/14 16:35:00;;;;;;;6.00;1.33;;;;;;;;;;4882203;29;20182;-86
2024/02/14 16:38:04;;;;;;;2.73;1.30;;;;;;;;;;4881898;29;20230;-86
2024/02/14 16:41:10;;;;;;;2.50;1.50;;;;;;;;;;4881011;29;20643;-86
2024/02/14 16:44:14;;;;;;;7.43;4.77;;;;;;;;;;4881638;29;20182;-85
2024/02/14 16:47:18;;;;;;;3.37;3.07;;;;;;;;;;4881265;29;20564;-86
2024/02/14 16:50:23;;;;;;;91.87;48.67;;;;;;;;;;4869984;29;20190;-86
2024/02/14 16:53:27;;;;;;;33.93;22.70;;;;;;;;;;4881980;29;20667;-86
2024/02/14 16:56:32;;;;;;;11.63;8.83;;;;;;;;;;4870340;29;20205;-85
2024/02/14 16:59:40;;;;;;;5.43;3.73;;;;;;;;;;4882562;29;20183;-87
2024/02/14 17:02:45;;;;;;;6.50;4.27;;;;;;;;;;4894569;29;20186;-88
2024/02/14 17:05:49;;;;;;;5.10;3.03;;;;;;;;;;4871713;29;20186;-87
2024/02/14 17:08:53;;;;;;;4.30;3.50;;;;;;;;;;4880727;29;20206;-85
2024/02/14 17:11:57;;;;;;;2.10;1.90;;;;;;;;;;4882250;29;20202;-85
2024/02/14 17:15:02;;;;;;;2.87;1.80;;;;;;;;;;4870642;29;20186;-84
2024/02/14 17:18:08;;;;;;;2.77;1.50;;;;;;;;;;4880448;29;20226;-84
2024/02/14 17:21:12;;;;;;;3.33;1.70;;;;;;;;;;4891804;29;20190;-85
2024/02/14 17:24:16;;;;;;;2.70;1.60;;;;;;;;;;4881634;29;20186;-84
2024/02/14 17:27:21;;;;;;;3.50;1.40;;;;;;;;;;4881149;29;20560;-84
2024/02/14 17:30:26;;;;;;;1.43;1.30;;;;;;;;;;4881890;29;20620;-84
2024/02/14 17:33:30;;;;;;;3.43;1.30;;;;;;;;;;4882086;29;20190;-84
2024/02/14 17:36:34;;;;;;;4.97;1.47;;;;;;;;;;4883574;29;20509;-84
2024/02/14 17:39:39;;;;;;;6.87;1.50;;;;;;;;;;4882345;29;20214;-84
2024/02/14 17:42:43;;;;;;;3.27;1.20;;;;;;;;;;4882782;29;20623;-85
2024/02/14 17:45:47;;;;;;;6.10;1.63;;;;;;;;;;4870552;29;20186;-85
2024/02/14 17:48:51;;;;;;;2.93;1.30;;;;;;;;;;4860597;29;20576;-84
2024/02/14 17:51:55;;;;;;;2.87;1.10;;;;;;;;;;4881137;29;20190;-84
2024/02/14 17:55:00;;;;;;;1.80;1.40;;;;;;;;;;4881106;29;20186;-82
2024/02/14 17:58:05;;;;;;;2.33;1.33;;;;;;;;;;4882607;29;20703;-82
2024/02/14 18:01:09;;;;;;;2.90;1.40;;;;;;;;;;4881564;29;20186;-82
2024/02/14 18:04:13;;;;;;;2.47;1.10;;;;;;;;;;4882434;29;20208;-82
2024/02/14 18:07:17;;;;;;;1.50;1.00;;;;;;;;;;4880909;29;20686;-82
2024/02/14 18:10:23;;;;;;;3.07;1.47;;;;;;;;;;4881159;29;20210;-82
2024/02/14 18:13:27;;;;;;;2.37;1.10;;;;;;;;;;4881604;29;20182;-82
2024/02/14 18:16:31;;;;;;;1.83;1.20;;;;;;;;;;4881230;29;20186;-82
2024/02/14 18:19:36;;;;;;;2.17;1.10;;;;;;;;;;4881731;29;20210;-82
2024/02/14 18:22:40;;;;;;;2.77;1.50;;;;;;;;;;4887944;29;20190;-82
2024/02/14 18:25:45;;;;;;;2.07;1.37;;;;;;;;;;4886274;29;20186;-81
2024/02/14 18:28:49;;;;;;;1.33;1.07;;;;;;;;;;4890385;29;20213;-82
2024/02/14 18:31:55;;;;;;;2.63;1.40;;;;;;;;;;4882713;29;20187;-82
2024/02/14 18:35:03;;;;;;;4.00;1.60;;;;;;;;;;4883461;29;20554;-82
2024/02/14 18:38:10;;;;;;;4.80;1.20;;;;;;;;;;4883392;29;20238;-82
2024/02/14 18:41:15;;;;;;;1.40;1.17;;;;;;;;;;4881827;29;20191;-82
2024/02/14 18:44:19;;;;;;;1.40;0.90;;;;;;;;;;4882844;29;20186;-82
2024/02/14 18:47:24;;;;;;;3.10;1.30;;;;;;;;;;4882115;29;20222;-82